createdAt,value
2023-01-22T11:51:35.457Z,3.50
2023-01-22T11:54:14.239Z,3.63
2023-01-22T11:57:00.462Z,3.27
2023-01-22T11:59:40.992Z,2.80
2023-01-22T12:02:24.675Z,2.87
2023-01-22T12:05:16.968Z,2.37
2023-01-22T12:07:57.166Z,2.63
2023-01-22T12:10:45.693Z,2.40
2023-01-22T12:13:23.411Z,3.87
2023-01-22T12:16:00.061Z,3.17
2023-01-22T12:18:42.204Z,3.40
2023-01-22T12:21:10.932Z,2.90
2023-01-22T12:23:43.947Z,2.93
2023-01-22T12:26:15.588Z,3.37
2023-01-22T12:28:48.165Z,3.50
2023-01-22T12:31:18.331Z,2.90
2023-01-22T12:33:46.845Z,3.90
2023-01-22T12:36:16.817Z,2.20
2023-01-22T12:38:50.099Z,3.37
2023-01-22T12:41:26.847Z,2.63
2023-01-22T12:43:57.164Z,2.10
2023-01-22T12:46:30.086Z,2.93
2023-01-22T12:49:03.660Z,2.43
2023-01-22T12:51:37.335Z,2.80
2023-01-22T12:54:23.347Z,2.47
2023-01-22T12:56:52.685Z,2.70
2023-01-22T12:59:48.190Z,2.73
2023-01-22T13:02:24.142Z,3.47
2023-01-22T13:04:52.791Z,3.50
2023-01-22T13:07:23.503Z,2.80
2023-01-22T13:10:03.517Z,3.30
2023-01-22T13:12:46.991Z,2.70
2023-01-22T13:15:18.948Z,3.60
2023-01-22T13:18:06.303Z,2.70
2023-01-22T13:20:36.730Z,3.33
2023-01-22T13:23:06.864Z,2.93
2023-01-22T13:25:36.623Z,3.00
2023-01-22T13:28:07.829Z,3.20
2023-01-22T13:30:36.340Z,2.83
2023-01-22T13:33:08.319Z,3.00
2023-01-22T13:35:38.105Z,3.13
2023-01-22T13:38:12.287Z,2.73
2023-01-22T13:40:50.964Z,1.93
2023-01-22T13:43:20.540Z,2.50
2023-01-22T13:45:49.120Z,4.07
2023-01-22T13:48:18.852Z,2.60
2023-01-22T13:50:48.860Z,2.27
2023-01-22T13:53:24.235Z,3.97
2023-01-22T13:55:54.019Z,2.90
2023-01-22T13:58:46.485Z,2.83
2023-01-22T14:01:29.595Z,3.10
2023-01-22T14:04:11.901Z,1.40
2023-01-22T14:06:47.449Z,2.73
2023-01-22T14:09:26.567Z,2.97
2023-01-22T14:11:56.879Z,2.37
2023-01-22T14:14:25.575Z,3.60
2023-01-22T14:16:54.118Z,2.93
2023-01-22T14:19:25.345Z,2.90
2023-01-22T14:21:53.653Z,3.53
2023-01-22T14:24:22.057Z,2.90
2023-01-22T14:26:50.462Z,3.00
2023-01-22T14:29:20.515Z,2.90
2023-01-22T14:31:48.824Z,3.00
2023-01-22T14:34:17.132Z,2.93
2023-01-22T14:36:48.159Z,3.23
2023-01-22T14:39:16.575Z,2.40
2023-01-22T14:41:48.154Z,3.00
2023-01-22T14:44:18.615Z,3.10
2023-01-22T14:46:50.178Z,2.53
2023-01-22T14:49:18.545Z,2.40
2023-01-22T14:51:46.965Z,2.90
2023-01-22T14:54:15.391Z,2.57
2023-01-22T14:56:50.414Z,2.33
2023-01-22T14:59:20.755Z,2.77
2023-01-22T15:01:51.203Z,3.30
2023-01-22T15:04:19.520Z,3.40
2023-01-22T15:06:48.262Z,3.27
2023-01-22T15:09:29.549Z,7.47
2023-01-22T15:11:57.851Z,4.27
2023-01-22T15:14:27.777Z,3.53
2023-01-22T15:16:57.687Z,4.03
2023-01-22T15:19:26.158Z,3.73
2023-01-22T15:21:54.441Z,3.47
2023-01-22T15:24:24.733Z,8.60
2023-01-22T15:26:54.125Z,17.40
2023-01-22T15:29:22.822Z,4.50
2023-01-22T15:31:51.106Z,4.33
2023-01-22T15:34:20.942Z,3.17
2023-01-22T15:36:49.224Z,4.00
2023-01-22T15:39:28.001Z,2.63
2023-01-22T15:41:56.441Z,4.87
2023-01-22T15:44:24.801Z,5.27
2023-01-22T15:46:53.293Z,3.30
2023-01-22T15:49:28.753Z,2.60
2023-01-22T15:51:57.029Z,2.70
2023-01-22T15:54:27.876Z,3.50
2023-01-22T15:56:56.189Z,3.30
2023-01-22T15:59:24.504Z,3.50
2023-01-22T16:01:53.373Z,4.07
2023-01-22T16:04:23.052Z,3.63
2023-01-22T16:06:57.105Z,3.50
2023-01-22T16:09:25.365Z,3.10
2023-01-22T16:11:56.920Z,4.17
2023-01-22T16:14:25.195Z,3.77
2023-01-22T16:16:57.752Z,2.90
2023-01-22T16:19:27.583Z,3.37
2023-01-22T16:21:55.918Z,4.40
2023-01-22T16:24:24.164Z,3.90
2023-01-22T16:26:54.472Z,3.97
2023-01-22T16:29:24.675Z,3.80
2023-01-22T16:31:53.012Z,2.90
2023-01-22T16:34:26.812Z,3.40
2023-01-22T16:36:57.650Z,3.93
2023-01-22T16:39:26.647Z,4.30
2023-01-22T16:41:55.917Z,3.17
2023-01-22T16:44:30.520Z,4.40
2023-01-22T16:47:00.722Z,3.80
2023-01-22T16:49:30.782Z,3.63
2023-01-22T16:52:10.200Z,3.90
2023-01-22T16:54:45.502Z,3.63
2023-01-22T16:57:13.813Z,3.77
2023-01-22T16:59:42.186Z,3.40
2023-01-22T17:02:14.723Z,4.10
2023-01-22T17:04:43.148Z,3.07
2023-01-22T17:07:33.218Z,3.53
2023-01-22T17:10:02.137Z,4.33
2023-01-22T17:12:30.875Z,5.00
2023-01-22T17:14:59.314Z,4.70
2023-01-22T17:17:27.587Z,3.83
2023-01-22T17:20:02.816Z,6.00
2023-01-22T17:22:33.232Z,4.73
2023-01-22T17:25:01.603Z,4.30
2023-01-22T17:27:31.880Z,3.87
2023-01-22T17:30:04.789Z,5.37
2023-01-22T17:32:33.090Z,6.33
2023-01-22T17:35:01.604Z,3.20
2023-01-22T17:37:29.954Z,4.90
2023-01-22T17:39:59.664Z,4.70
2023-01-22T17:42:27.971Z,6.73
2023-01-22T17:44:56.208Z,5.03
2023-01-22T17:47:24.535Z,5.20
2023-01-22T17:49:52.799Z,5.97
2023-01-22T17:52:21.126Z,5.30
2023-01-22T17:54:49.589Z,4.50
2023-01-22T17:57:23.439Z,5.10
2023-01-22T17:59:51.901Z,6.00
2023-01-22T18:02:20.237Z,4.33
2023-01-22T18:04:50.023Z,4.30
2023-01-22T18:07:18.337Z,4.73
2023-01-22T18:09:46.550Z,6.37
2023-01-22T18:12:14.893Z,6.20
2023-01-22T18:14:44.914Z,5.40
2023-01-22T18:17:19.366Z,5.60
2023-01-22T18:19:47.791Z,4.63
2023-01-22T18:22:18.138Z,5.20
2023-01-22T18:24:46.405Z,5.20
2023-01-22T18:27:20.027Z,4.77
2023-01-22T18:29:58.478Z,5.20
2023-01-22T18:32:27.183Z,4.87
2023-01-22T18:34:55.527Z,4.33
2023-01-22T18:37:24.828Z,4.93
2023-01-22T18:39:53.257Z,6.03
2023-01-22T18:42:25.040Z,6.27
2023-01-22T18:44:56.440Z,6.03
2023-01-22T18:47:34.028Z,5.10
2023-01-22T18:50:02.375Z,5.70
2023-01-22T18:52:33.352Z,5.20
2023-01-22T18:55:01.961Z,6.33
2023-01-22T18:58:11.096Z,3.70
2023-01-22T19:00:41.262Z,6.20
2023-01-22T19:03:11.185Z,7.10
2023-01-22T19:05:40.864Z,5.73
2023-01-22T19:08:09.435Z,6.37
2023-01-22T19:10:37.643Z,5.50
2023-01-22T19:13:06.224Z,5.20
2023-01-22T19:15:42.192Z,4.83
2023-01-22T19:18:12.363Z,6.83
2023-01-22T19:20:42.797Z,5.77
2023-01-22T19:23:11.100Z,4.00
2023-01-22T19:25:44.988Z,6.00
2023-01-22T19:28:13.452Z,6.57
2023-01-22T19:30:45.023Z,5.93
2023-01-22T19:33:14.867Z,6.70
2023-01-22T19:35:49.673Z,5.10
2023-01-22T19:38:18.446Z,5.63
2023-01-22T19:40:46.884Z,7.10
2023-01-22T19:43:15.521Z,7.00
2023-01-22T19:45:43.775Z,6.60
2023-01-22T19:48:21.220Z,4.00
2023-01-22T19:50:58.856Z,5.70
2023-01-22T19:53:27.456Z,5.77
2023-01-22T19:55:56.115Z,6.07
2023-01-22T19:58:24.461Z,5.60
2023-01-22T20:00:54.440Z,6.27
2023-01-22T20:03:23.459Z,6.83
2023-01-22T20:05:53.351Z,6.77
2023-01-22T20:08:25.733Z,5.00
2023-01-22T20:10:59.903Z,6.80
2023-01-22T20:13:31.357Z,4.57
2023-01-22T20:16:00.941Z,5.97
2023-01-22T20:18:31.501Z,4.90
2023-01-22T20:21:02.201Z,4.40
2023-01-22T20:23:31.038Z,5.10
2023-01-22T20:26:02.143Z,6.50
2023-01-22T20:28:36.379Z,6.10
2023-01-22T20:31:05.809Z,4.80
2023-01-22T20:33:34.986Z,5.90
2023-01-22T20:36:06.554Z,6.10
2023-01-22T20:38:37.481Z,6.23
2023-01-22T20:41:09.212Z,6.00
2023-01-22T20:43:37.810Z,5.03
2023-01-22T20:46:07.390Z,5.83
2023-01-22T20:48:39.114Z,5.77
2023-01-22T20:51:15.647Z,5.10
2023-01-22T20:53:44.477Z,6.20
2023-01-22T20:56:14.401Z,5.73
2023-01-22T20:58:46.437Z,5.27
2023-01-22T21:01:15.988Z,5.30
2023-01-22T21:03:44.794Z,5.73
2023-01-22T21:06:15.180Z,5.70
2023-01-22T21:08:50.378Z,6.07
2023-01-22T21:11:20.228Z,6.30
2023-01-22T21:13:51.672Z,5.83
2023-01-22T21:16:23.065Z,6.00
2023-01-22T21:18:53.912Z,5.40
2023-01-22T21:21:23.941Z,5.47
2023-01-22T21:23:53.325Z,7.00
2023-01-22T21:26:23.856Z,6.47
2023-01-22T21:28:52.592Z,5.30
2023-01-22T21:31:21.609Z,5.53
2023-01-22T21:33:52.551Z,5.30
2023-01-22T21:36:22.444Z,6.90
2023-01-22T21:38:52.108Z,6.07
2023-01-22T21:41:20.868Z,6.93
2023-01-22T21:44:07.177Z,6.20
2023-01-22T21:46:36.978Z,6.30
2023-01-22T21:49:16.359Z,5.80
2023-01-22T21:51:46.658Z,6.17
2023-01-22T21:54:17.006Z,6.17
2023-01-22T21:56:45.586Z,6.00
2023-01-22T21:59:14.035Z,7.13
2023-01-22T22:01:42.385Z,6.53
2023-01-22T22:04:11.220Z,5.40
2023-01-22T22:06:39.730Z,4.30
2023-01-22T22:09:09.854Z,6.90
2023-01-22T22:11:39.520Z,5.27
2023-01-22T22:14:10.012Z,6.70
2023-01-22T22:16:38.654Z,5.40
2023-01-22T22:19:07.739Z,5.20
2023-01-22T22:21:36.162Z,5.23
2023-01-22T22:24:04.653Z,5.90
2023-01-22T22:26:33.111Z,5.33
2023-01-22T22:29:02.894Z,5.13
2023-01-22T22:31:39.364Z,6.37
2023-01-22T22:34:08.544Z,6.47
2023-01-22T22:36:37.031Z,5.17
2023-01-22T22:39:06.462Z,5.07
2023-01-22T22:41:36.093Z,5.73
2023-01-22T22:44:06.167Z,5.40
2023-01-22T22:46:35.458Z,6.50
2023-01-22T22:49:04.122Z,5.80
2023-01-22T22:51:33.190Z,5.33
2023-01-22T22:54:02.371Z,6.90
2023-01-22T22:56:31.204Z,5.70
2023-01-22T22:59:00.776Z,5.37
2023-01-22T23:01:31.540Z,4.40
2023-01-22T23:03:59.948Z,6.83
2023-01-22T23:06:28.873Z,6.97
2023-01-22T23:08:58.181Z,5.23
2023-01-22T23:11:28.142Z,6.87
2023-01-22T23:14:01.149Z,5.67
2023-01-22T23:16:32.163Z,4.20
2023-01-22T23:19:01.366Z,5.90
2023-01-22T23:21:30.519Z,4.50
2023-01-22T23:23:58.794Z,5.80
2023-01-22T23:26:31.041Z,5.20
2023-01-22T23:29:00.629Z,6.73
2023-01-22T23:31:30.260Z,4.70
2023-01-22T23:34:01.266Z,5.97
2023-01-22T23:36:30.513Z,5.40
2023-01-22T23:38:58.800Z,6.10
2023-01-22T23:41:27.151Z,4.50
2023-01-22T23:43:55.751Z,5.63
2023-01-22T23:46:30.208Z,6.43
2023-01-22T23:49:00.553Z,4.60
2023-01-22T23:51:29.137Z,5.30
2023-01-22T23:53:58.036Z,6.90
2023-01-22T23:56:27.127Z,5.80
2023-01-22T23:58:55.882Z,5.50
